createdAt,value
2022-11-09T00:01:43.942Z,3.35
2022-11-09T00:04:11.058Z,3.05
2022-11-09T00:06:38.507Z,3.35
2022-11-09T00:09:08.043Z,3.28
2022-11-09T00:11:35.760Z,3.10
2022-11-09T00:14:02.477Z,3.38
2022-11-09T00:16:29.107Z,3.13
2022-11-09T00:18:55.750Z,3.03
2022-11-09T00:21:24.868Z,3.58
2022-11-09T00:23:52.490Z,3.75
2022-11-09T00:26:20.354Z,3.13
2022-11-09T00:28:47.482Z,3.38
2022-11-09T00:31:18.479Z,3.38
2022-11-09T00:33:48.668Z,3.50
2022-11-09T00:36:15.324Z,3.10
2022-11-09T00:38:41.969Z,3.42
2022-11-09T00:41:10.701Z,3.03
2022-11-09T00:43:37.565Z,3.13
2022-11-09T00:46:04.754Z,3.50
2022-11-09T00:48:31.616Z,3.38
2022-11-09T00:50:58.741Z,4.88
2022-11-09T00:53:26.370Z,3.90
2022-11-09T00:56:03.518Z,4.57
2022-11-09T00:58:31.888Z,4.05
2022-11-09T01:01:00.807Z,3.50
2022-11-09T01:03:27.629Z,4.22
2022-11-09T01:05:54.278Z,3.70
2022-11-09T01:08:20.873Z,3.97
2022-11-09T01:10:48.768Z,3.63
2022-11-09T01:13:17.563Z,3.45
2022-11-09T01:15:50.402Z,3.17
2022-11-09T01:18:18.632Z,3.67
2022-11-09T01:20:47.375Z,4.00
2022-11-09T01:23:16.088Z,3.97
2022-11-09T01:25:43.545Z,3.72
2022-11-09T01:28:11.513Z,4.20
2022-11-09T01:30:40.756Z,3.50
2022-11-09T01:33:09.507Z,3.45
2022-11-09T01:35:37.833Z,3.70
2022-11-09T01:38:05.729Z,3.15
2022-11-09T01:40:33.748Z,3.45
2022-11-09T01:43:13.910Z,3.65
2022-11-09T01:45:42.814Z,3.20
2022-11-09T01:48:17.852Z,3.42
2022-11-09T01:50:58.020Z,2.95
2022-11-09T01:53:29.705Z,3.85
2022-11-09T01:56:00.605Z,3.47
2022-11-09T01:58:57.936Z,3.20
2022-11-09T02:01:25.128Z,3.20
2022-11-09T02:04:04.690Z,3.30
2022-11-09T02:06:32.652Z,3.53
2022-11-09T02:09:18.230Z,3.38
2022-11-09T02:11:44.837Z,3.35
2022-11-09T02:14:12.856Z,2.95
2022-11-09T02:16:40.909Z,3.00
2022-11-09T02:19:07.539Z,3.65
2022-11-09T02:21:34.711Z,3.53
2022-11-09T02:24:01.473Z,3.60
2022-11-09T02:26:35.813Z,3.20
2022-11-09T02:29:05.300Z,3.28
2022-11-09T02:31:36.918Z,3.33
2022-11-09T02:34:16.783Z,3.63
2022-11-09T02:36:43.631Z,3.25
2022-11-09T02:39:11.578Z,3.45
2022-11-09T02:42:10.396Z,3.15
2022-11-09T02:44:43.105Z,3.25
2022-11-09T02:47:09.861Z,3.30
2022-11-09T02:49:36.598Z,3.72
2022-11-09T02:52:03.385Z,4.15
2022-11-09T02:54:30.080Z,3.25
2022-11-09T02:56:56.745Z,3.33
2022-11-09T02:59:23.386Z,3.22
2022-11-09T03:01:50.198Z,2.90
2022-11-09T03:04:16.968Z,3.53
2022-11-09T03:06:43.751Z,2.97
2022-11-09T03:09:12.449Z,3.30
2022-11-09T03:11:40.542Z,3.20
2022-11-09T03:14:07.615Z,3.15
2022-11-09T03:16:35.584Z,3.28
2022-11-09T03:19:02.610Z,3.25
2022-11-09T03:21:29.890Z,3.22
2022-11-09T03:23:56.678Z,3.40
2022-11-09T03:26:23.640Z,2.95
2022-11-09T03:28:50.243Z,3.58
2022-11-09T03:31:17.382Z,3.30
2022-11-09T03:33:44.029Z,2.92
2022-11-09T03:36:11.191Z,3.20
2022-11-09T03:38:37.840Z,3.25
2022-11-09T03:41:04.556Z,3.35
2022-11-09T03:43:31.394Z,3.30
2022-11-09T03:45:58.222Z,3.10
2022-11-09T03:48:24.867Z,3.47
2022-11-09T03:50:51.528Z,3.00
2022-11-09T03:53:18.710Z,3.13
2022-11-09T03:55:45.664Z,3.47
2022-11-09T03:58:12.399Z,3.50
2022-11-09T04:00:39.162Z,3.10
2022-11-09T04:03:05.834Z,3.25
2022-11-09T04:05:32.489Z,3.55
2022-11-09T04:07:59.553Z,3.60
2022-11-09T04:10:26.734Z,3.70
2022-11-09T04:12:53.940Z,3.80
2022-11-09T04:15:21.299Z,4.40
2022-11-09T04:18:01.737Z,3.35
2022-11-09T04:20:30.391Z,3.10
2022-11-09T04:23:03.349Z,3.10
2022-11-09T04:25:33.649Z,3.47
2022-11-09T04:28:01.288Z,3.22
2022-11-09T04:30:29.456Z,3.30
2022-11-09T04:33:00.492Z,3.45
2022-11-09T04:35:28.894Z,3.38
2022-11-09T04:38:12.325Z,3.00
2022-11-09T04:40:39.229Z,3.50
2022-11-09T04:43:10.253Z,4.05
2022-11-09T04:45:36.951Z,3.58
2022-11-09T04:48:06.343Z,3.40
2022-11-09T04:50:33.715Z,3.47
2022-11-09T04:53:14.633Z,3.80
2022-11-09T04:55:41.915Z,3.55
2022-11-09T04:58:09.089Z,3.80
2022-11-09T05:00:36.539Z,4.10
2022-11-09T05:03:04.770Z,5.63
2022-11-09T05:05:33.696Z,4.85
2022-11-09T05:08:00.340Z,4.03
2022-11-09T05:10:26.949Z,4.28
2022-11-09T05:13:05.306Z,3.92
2022-11-09T05:15:33.213Z,4.57
2022-11-09T05:18:00.135Z,3.92
2022-11-09T05:20:27.126Z,3.50
2022-11-09T05:22:57.767Z,3.92
2022-11-09T05:25:24.436Z,4.18
2022-11-09T05:27:51.815Z,4.13
2022-11-09T05:30:18.647Z,4.32
2022-11-09T05:32:45.279Z,4.85
2022-11-09T05:35:12.189Z,5.32
2022-11-09T05:37:39.422Z,5.32
2022-11-09T05:40:08.836Z,3.80
2022-11-09T05:42:39.040Z,4.50
2022-11-09T05:45:35.561Z,4.38
2022-11-09T05:47:52.768Z,4.15
2022-11-09T05:50:19.627Z,3.72
2022-11-09T05:52:46.283Z,3.90
2022-11-09T05:55:15.754Z,5.20
2022-11-09T05:57:43.941Z,4.18
2022-11-09T06:00:15.125Z,4.10
2022-11-09T06:02:41.815Z,4.05
2022-11-09T06:05:09.132Z,4.50
2022-11-09T06:07:39.028Z,4.72
2022-11-09T06:10:06.286Z,4.80
2022-11-09T06:12:32.881Z,4.57
2022-11-09T06:15:02.380Z,4.80
2022-11-09T06:17:29.063Z,4.35
2022-11-09T06:19:55.716Z,4.30
2022-11-09T06:22:22.457Z,4.32
2022-11-09T06:24:49.168Z,4.55
2022-11-09T06:27:15.842Z,4.95
2022-11-09T06:29:45.325Z,4.97
2022-11-09T06:32:11.965Z,4.75
2022-11-09T06:34:38.683Z,4.72
2022-11-09T06:37:05.303Z,4.47
2022-11-09T06:39:37.141Z,4.72
2022-11-09T06:42:04.006Z,5.00
2022-11-09T06:44:30.705Z,4.55
2022-11-09T06:46:57.374Z,4.88
2022-11-09T06:49:24.029Z,5.18
2022-11-09T06:51:50.608Z,4.90
2022-11-09T06:54:17.271Z,4.15
2022-11-09T06:56:44.070Z,4.90
2022-11-09T06:59:10.746Z,5.18
2022-11-09T07:01:37.923Z,5.30
2022-11-09T07:04:05.142Z,5.70
2022-11-09T07:06:31.811Z,5.13
2022-11-09T07:08:58.847Z,5.38
2022-11-09T07:11:25.615Z,5.20
2022-11-09T07:13:57.036Z,5.18
2022-11-09T07:16:24.213Z,4.95
2022-11-09T07:18:50.941Z,5.18
2022-11-09T07:21:18.860Z,4.75
2022-11-09T07:23:57.535Z,4.60
2022-11-09T07:26:24.562Z,5.25
2022-11-09T07:28:54.465Z,5.80
2022-11-09T07:31:21.171Z,5.28
2022-11-09T07:33:49.692Z,5.07
2022-11-09T07:36:21.790Z,5.30
2022-11-09T07:38:48.619Z,5.40
2022-11-09T07:41:15.410Z,6.40
2022-11-09T07:43:42.066Z,5.47
2022-11-09T07:46:11.261Z,7.13
2022-11-09T07:48:37.950Z,6.50
2022-11-09T07:51:05.088Z,6.30
2022-11-09T07:53:31.864Z,5.53
2022-11-09T07:56:00.135Z,5.53
2022-11-09T07:58:27.593Z,5.70
2022-11-09T08:00:56.577Z,4.78
2022-11-09T08:03:28.947Z,5.35
2022-11-09T08:05:58.144Z,5.20
2022-11-09T08:08:33.538Z,5.72
2022-11-09T08:11:00.197Z,6.45
2022-11-09T08:13:26.842Z,6.15
2022-11-09T08:16:00.767Z,6.22
2022-11-09T08:18:27.711Z,6.05
2022-11-09T08:20:54.492Z,5.57
2022-11-09T08:23:21.550Z,6.32
2022-11-09T08:25:55.002Z,5.20
2022-11-09T08:28:24.810Z,5.65
2022-11-09T08:31:00.495Z,5.32
2022-11-09T08:35:58.601Z,6.38
2022-11-09T08:38:28.391Z,6.00
2022-11-09T08:40:58.933Z,5.78
2022-11-09T08:43:26.037Z,5.95
2022-11-09T08:45:56.605Z,5.80
2022-11-09T08:48:23.370Z,6.13
2022-11-09T08:50:59.613Z,6.03
2022-11-09T08:53:28.097Z,16.48
2022-11-09T08:55:58.038Z,7.43
2022-11-09T08:58:27.689Z,7.45
2022-11-09T09:00:55.465Z,6.30
2022-11-09T09:03:29.922Z,7.65
2022-11-09T09:05:56.754Z,8.77
2022-11-09T09:08:25.830Z,5.75
2022-11-09T09:10:52.656Z,6.00
2022-11-09T09:13:19.313Z,5.72
2022-11-09T09:15:48.713Z,5.50
2022-11-09T09:18:15.367Z,6.05
2022-11-09T09:20:42.132Z,6.13
2022-11-09T09:23:08.806Z,5.53
2022-11-09T09:25:35.619Z,6.95
2022-11-09T09:28:02.447Z,5.80
2022-11-09T09:30:29.465Z,5.57
2022-11-09T09:33:02.492Z,5.80
2022-11-09T09:35:32.577Z,5.85
2022-11-09T09:37:59.342Z,5.95
2022-11-09T09:40:54.337Z,5.22
2022-11-09T09:43:28.972Z,5.80
2022-11-09T09:46:00.045Z,6.43
2022-11-09T09:48:51.762Z,5.75
2022-11-09T09:51:40.597Z,5.97
2022-11-09T09:54:21.110Z,6.70
2022-11-09T09:56:50.985Z,6.88
2022-11-09T09:59:25.975Z,6.43
2022-11-09T10:01:52.903Z,6.67
2022-11-09T10:04:23.416Z,7.00
2022-11-09T10:06:58.482Z,6.13
2022-11-09T10:09:43.789Z,6.53
2022-11-09T10:12:46.267Z,7.07
2022-11-09T10:15:25.600Z,6.32
2022-11-09T10:18:11.091Z,6.43
2022-11-09T10:21:06.582Z,6.45
2022-11-09T10:24:00.810Z,6.32
2022-11-09T10:26:40.392Z,6.10
2022-11-09T10:29:34.853Z,6.28
2022-11-09T10:32:16.309Z,5.40
2022-11-09T10:35:06.886Z,5.80
2022-11-09T10:37:42.900Z,6.32
2022-11-09T10:40:23.749Z,5.57
2022-11-09T10:43:02.344Z,6.20
2022-11-09T10:45:44.634Z,6.47
2022-11-09T10:48:13.917Z,5.55
2022-11-09T10:50:49.083Z,5.65
2022-11-09T10:53:28.566Z,10.27
2022-11-09T10:56:21.115Z,5.78
2022-11-09T10:58:54.669Z,5.45
2022-11-09T11:01:22.892Z,5.47
2022-11-09T11:03:54.773Z,5.38
2022-11-09T11:06:21.329Z,5.28
2022-11-09T11:09:06.392Z,5.72
2022-11-09T11:11:38.120Z,4.95
2022-11-09T11:14:29.772Z,5.25
2022-11-09T11:16:56.512Z,4.82
2022-11-09T11:19:37.164Z,4.63
2022-11-09T11:22:12.569Z,5.10
2022-11-09T11:24:47.756Z,5.65
2022-11-09T11:27:24.432Z,4.30
2022-11-09T11:30:02.668Z,5.00
2022-11-09T11:32:36.874Z,5.00
2022-11-09T11:35:17.552Z,4.57
2022-11-09T11:37:53.451Z,4.63
2022-11-09T11:41:19.467Z,4.28
2022-11-09T11:44:08.088Z,4.65
2022-11-09T11:46:48.015Z,3.90
2022-11-09T11:49:29.737Z,4.50
2022-11-09T11:52:08.886Z,4.30
2022-11-09T11:54:38.497Z,4.75
2022-11-09T11:57:16.838Z,3.92
2022-11-09T12:00:12.978Z,3.85
2022-11-09T12:03:24.101Z,3.65
2022-11-09T12:06:25.842Z,4.20
2022-11-09T12:09:03.474Z,3.95
2022-11-09T12:11:42.289Z,3.90
2022-11-09T12:14:32.539Z,3.63
2022-11-09T12:17:22.861Z,3.60
2022-11-09T12:20:22.453Z,3.50
2022-11-09T12:22:58.307Z,3.65
2022-11-09T12:25:40.666Z,3.50
2022-11-09T12:28:18.188Z,3.80
2022-11-09T12:30:53.056Z,4.18
2022-11-09T12:33:35.526Z,4.15
2022-11-09T12:36:20.338Z,3.33
2022-11-09T12:39:00.962Z,3.97
2022-11-09T12:41:34.640Z,3.47
2022-11-09T12:44:29.999Z,3.40
2022-11-09T12:47:12.616Z,3.33
2022-11-09T12:49:44.722Z,2.97
2022-11-09T12:52:15.583Z,3.00
2022-11-09T12:54:46.901Z,3.10
2022-11-09T12:57:23.948Z,3.40
2022-11-09T12:59:51.958Z,2.95
2022-11-09T13:02:36.043Z,3.50
2022-11-09T13:05:08.418Z,2.90
2022-11-09T13:07:48.762Z,2.80
2022-11-09T13:10:27.400Z,3.38
2022-11-09T13:13:22.071Z,2.67
2022-11-09T13:16:30.613Z,3.00
2022-11-09T13:18:57.397Z,2.90
2022-11-09T13:21:34.533Z,3.00
2022-11-09T13:24:30.525Z,3.53
2022-11-09T13:27:00.954Z,2.53
2022-11-09T13:29:41.029Z,2.53
2022-11-09T13:32:10.653Z,2.55
2022-11-09T13:34:46.591Z,2.80
2022-11-09T13:37:41.583Z,2.15
2022-11-09T13:40:33.417Z,2.60
2022-11-09T13:43:06.960Z,3.08
2022-11-09T13:45:45.545Z,2.60
2022-11-09T13:48:24.782Z,2.42
2022-11-09T13:50:56.882Z,2.90
2022-11-09T13:53:47.333Z,2.80
2022-11-09T13:56:37.300Z,3.85
2022-11-09T13:59:07.707Z,2.90
2022-11-09T14:01:44.892Z,3.40
2022-11-09T14:04:26.282Z,3.05
2022-11-09T14:07:07.994Z,2.50
2022-11-09T14:09:40.696Z,2.85
2022-11-09T14:12:45.087Z,3.13
2022-11-09T14:15:20.745Z,2.78
2022-11-09T14:20:30.788Z,2.63
2022-11-09T14:22:57.672Z,2.78
2022-11-09T14:25:25.159Z,3.10
2022-11-09T14:27:55.875Z,3.13
2022-11-09T14:30:28.057Z,3.00
2022-11-09T14:32:56.592Z,3.30
2022-11-09T14:35:24.926Z,3.00
2022-11-09T14:37:53.747Z,3.33
2022-11-09T14:40:25.585Z,2.83
2022-11-09T14:43:00.374Z,3.53
2022-11-09T14:45:27.686Z,3.05
2022-11-09T14:47:59.635Z,4.15
2022-11-09T14:50:36.917Z,4.63
2022-11-09T14:53:04.887Z,3.72
2022-11-09T14:55:40.773Z,3.30
2022-11-09T14:58:13.703Z,3.35
2022-11-09T15:00:46.484Z,3.30
2022-11-09T15:03:42.570Z,3.80
2022-11-09T15:06:16.106Z,3.95
2022-11-09T15:08:56.342Z,3.75
2022-11-09T15:11:37.831Z,4.13
2022-11-09T15:14:32.148Z,4.65
2022-11-09T15:17:06.046Z,4.40
2022-11-09T15:19:37.466Z,4.13
2022-11-09T15:22:05.098Z,4.68
2022-11-09T15:24:47.244Z,5.65
2022-11-09T15:27:35.457Z,4.68
2022-11-09T15:30:02.615Z,3.33
2022-11-09T15:32:35.335Z,5.18
2022-11-09T15:35:02.113Z,4.40
2022-11-09T15:37:30.394Z,4.50
2022-11-09T15:39:58.483Z,5.72
2022-11-09T15:42:26.675Z,5.78
2022-11-09T15:44:58.650Z,5.28
2022-11-09T15:47:34.419Z,5.00
2022-11-09T15:52:29.557Z,4.22
2022-11-09T15:54:56.537Z,4.45
2022-11-09T15:57:23.361Z,4.70
2022-11-09T15:59:51.139Z,4.70
2022-11-09T16:02:18.261Z,5.00
2022-11-09T16:04:45.209Z,5.70
2022-11-09T16:07:15.197Z,4.47
2022-11-09T16:09:42.717Z,20.95
2022-11-09T16:12:09.859Z,6.75
2022-11-09T16:14:37.015Z,7.50
2022-11-09T16:17:03.844Z,6.60
2022-11-09T16:19:30.605Z,5.82
2022-11-09T16:21:57.283Z,5.03
2022-11-09T16:24:24.189Z,5.60
2022-11-09T16:26:51.084Z,5.93
2022-11-09T16:29:17.764Z,6.50
2022-11-09T16:31:52.615Z,6.93
2022-11-09T16:34:19.861Z,6.30
2022-11-09T16:36:51.084Z,6.00
2022-11-09T16:39:21.036Z,6.25
2022-11-09T16:41:50.245Z,6.07
2022-11-09T16:44:20.403Z,6.75
2022-11-09T16:46:48.172Z,6.88
2022-11-09T16:49:15.282Z,7.15
2022-11-09T16:51:44.732Z,8.00
2022-11-09T16:54:11.510Z,7.65
2022-11-09T16:56:38.253Z,7.78
2022-11-09T16:59:04.932Z,8.57
2022-11-09T17:01:32.082Z,8.32
2022-11-09T17:03:58.832Z,7.90
2022-11-09T17:06:25.797Z,8.27
2022-11-09T17:08:56.440Z,8.27
2022-11-09T17:11:23.297Z,9.32
2022-11-09T17:13:58.176Z,8.10
2022-11-09T17:16:25.640Z,8.43
2022-11-09T17:18:54.424Z,8.25
2022-11-09T17:21:22.834Z,8.40
2022-11-09T17:23:50.264Z,7.57
2022-11-09T17:26:18.813Z,6.93
2022-11-09T17:28:45.719Z,7.47
2022-11-09T17:31:23.966Z,7.80
2022-11-09T17:33:53.913Z,8.50
2022-11-09T17:36:41.890Z,8.10
2022-11-09T17:39:10.634Z,7.90
2022-11-09T17:41:42.275Z,8.05
2022-11-09T17:44:09.449Z,8.00
2022-11-09T17:46:36.149Z,8.23
2022-11-09T17:49:08.600Z,8.52
2022-11-09T17:51:36.791Z,8.70
2022-11-09T17:54:03.577Z,7.60
2022-11-09T17:56:36.708Z,8.40
2022-11-09T17:59:06.076Z,9.05
2022-11-09T18:01:37.785Z,7.68
2022-11-09T18:04:06.819Z,7.95
2022-11-09T18:06:33.768Z,8.30
2022-11-09T18:09:34.536Z,9.07
2022-11-09T18:11:51.303Z,9.70
2022-11-09T18:14:18.172Z,8.18
2022-11-09T18:16:48.789Z,9.55
2022-11-09T18:19:20.902Z,10.30
2022-11-09T18:21:47.574Z,10.55
2022-11-09T18:24:17.406Z,8.13
2022-11-09T18:26:47.125Z,9.50
2022-11-09T18:29:16.762Z,8.88
2022-11-09T18:31:43.525Z,9.00
2022-11-09T18:34:10.796Z,7.20
2022-11-09T18:36:37.501Z,7.50
2022-11-09T18:39:04.296Z,7.97
2022-11-09T18:41:31.327Z,7.55
2022-11-09T18:43:58.277Z,7.00
2022-11-09T18:46:25.017Z,6.68
2022-11-09T18:48:53.365Z,5.97
2022-11-09T18:51:20.275Z,6.05
2022-11-09T18:53:48.347Z,5.78
2022-11-09T18:56:25.431Z,5.30
2022-11-09T18:58:54.119Z,4.72
2022-11-09T19:01:22.295Z,4.15
2022-11-09T19:03:49.593Z,3.45
2022-11-09T19:06:19.083Z,4.05
2022-11-09T19:08:45.968Z,4.60
2022-11-09T19:11:13.855Z,3.90
2022-11-09T19:13:41.153Z,4.97
2022-11-09T19:16:11.755Z,7.25
2022-11-09T19:18:39.094Z,8.65
2022-11-09T19:21:18.030Z,7.60
2022-11-09T19:23:44.716Z,9.10
2022-11-09T19:26:11.541Z,10.18
2022-11-09T19:28:38.226Z,10.20
2022-11-09T19:31:05.062Z,9.52
2022-11-09T19:33:31.858Z,10.98
2022-11-09T19:36:28.153Z,8.27
2022-11-09T19:38:48.280Z,9.48
2022-11-09T19:41:15.533Z,9.00
2022-11-09T19:43:42.243Z,11.68
2022-11-09T19:46:08.957Z,8.70
2022-11-09T19:48:35.607Z,7.32
2022-11-09T19:51:04.251Z,8.93
2022-11-09T19:53:30.920Z,7.97
2022-11-09T19:56:01.606Z,8.65
2022-11-09T19:58:28.270Z,8.88
2022-11-09T20:01:05.819Z,8.05
2022-11-09T20:03:32.655Z,8.15
2022-11-09T20:05:59.631Z,7.80
2022-11-09T20:08:27.037Z,7.05
2022-11-09T20:10:54.383Z,7.65
2022-11-09T20:13:22.163Z,7.72
2022-11-09T20:15:48.963Z,7.97
2022-11-09T20:18:15.668Z,8.77
2022-11-09T20:20:42.369Z,8.93
2022-11-09T20:23:09.036Z,10.38
2022-11-09T20:25:35.681Z,9.63
2022-11-09T20:28:02.435Z,10.23
2022-11-09T20:30:29.192Z,9.40
2022-11-09T20:32:55.878Z,9.90
2022-11-09T20:35:22.774Z,10.10
2022-11-09T20:37:52.618Z,10.13
2022-11-09T20:40:19.439Z,9.65
2022-11-09T20:42:46.173Z,10.10
2022-11-09T20:45:13.102Z,10.20
2022-11-09T20:48:04.709Z,11.02
2022-11-09T20:50:26.670Z,11.50
2022-11-09T20:52:53.974Z,10.68
2022-11-09T20:55:20.735Z,9.98
2022-11-09T20:57:47.457Z,9.70
2022-11-09T21:00:14.562Z,9.10
2022-11-09T21:02:41.256Z,9.38
2022-11-09T21:05:07.995Z,9.70
2022-11-09T21:07:34.643Z,9.98
2022-11-09T21:10:01.312Z,9.52
2022-11-09T21:12:27.959Z,9.98
2022-11-09T21:14:54.626Z,9.63
2022-11-09T21:17:21.469Z,9.27
2022-11-09T21:19:48.222Z,9.60
2022-11-09T21:22:14.910Z,8.90
2022-11-09T21:24:41.559Z,9.02
2022-11-09T21:27:11.064Z,8.70
2022-11-09T21:29:37.753Z,8.77
2022-11-09T21:32:05.141Z,9.45
2022-11-09T21:34:36.547Z,16.23
2022-11-09T21:37:04.536Z,9.55
2022-11-09T21:39:31.394Z,8.43
2022-11-09T21:41:58.201Z,8.07
2022-11-09T21:44:27.308Z,8.30
2022-11-09T21:46:54.014Z,7.22
2022-11-09T21:49:20.734Z,7.93
2022-11-09T21:51:48.223Z,6.50
2022-11-09T21:54:15.059Z,7.18
2022-11-09T21:56:48.211Z,4.90
2022-11-09T21:59:15.323Z,5.40
2022-11-09T22:01:42.224Z,5.45
2022-11-09T22:04:09.718Z,4.78
2022-11-09T22:06:37.943Z,5.10
2022-11-09T22:09:16.700Z,4.70
2022-11-09T22:11:44.327Z,4.70
2022-11-09T22:14:17.047Z,4.95
2022-11-09T22:16:43.762Z,5.00
2022-11-09T22:19:10.443Z,5.15
2022-11-09T22:21:37.403Z,4.85
2022-11-09T22:24:04.459Z,4.57
2022-11-09T22:26:31.786Z,5.45
2022-11-09T22:28:58.873Z,4.53
2022-11-09T22:31:26.205Z,4.70
2022-11-09T22:33:53.511Z,4.80
2022-11-09T22:36:20.636Z,5.03
2022-11-09T22:38:47.437Z,4.93
2022-11-09T22:41:15.322Z,4.50
2022-11-09T22:43:43.535Z,4.38
2022-11-09T22:46:15.692Z,5.47
2022-11-09T22:48:43.997Z,4.70
2022-11-09T22:51:17.035Z,3.97
2022-11-09T22:53:47.076Z,3.80
2022-11-09T22:56:13.744Z,4.15
2022-11-09T22:58:40.493Z,3.80
2022-11-09T23:01:15.986Z,4.72
2022-11-09T23:03:43.240Z,4.05
2022-11-09T23:06:12.989Z,3.45
2022-11-09T23:08:39.689Z,4.30
2022-11-09T23:11:08.254Z,3.58
2022-11-09T23:13:34.941Z,3.53
2022-11-09T23:16:04.559Z,3.20
2022-11-09T23:18:31.539Z,2.92
2022-11-09T23:21:00.076Z,2.83
2022-11-09T23:23:26.712Z,3.13
2022-11-09T23:25:53.372Z,2.70
2022-11-09T23:28:20.393Z,2.90
2022-11-09T23:30:47.025Z,3.10
2022-11-09T23:33:13.778Z,3.10
2022-11-09T23:35:40.664Z,2.95
2022-11-09T23:38:07.419Z,3.00
2022-11-09T23:40:35.511Z,3.60
2022-11-09T23:43:04.418Z,3.00
2022-11-09T23:45:33.571Z,3.00
2022-11-09T23:48:00.439Z,2.65
2022-11-09T23:50:27.351Z,2.78
2022-11-09T23:52:57.071Z,2.53
2022-11-09T23:55:24.908Z,2.30
2022-11-09T23:57:51.634Z,2.00
